createdAt,value
2023-05-09T00:02:22.365Z,6.09
2023-05-09T00:04:49.409Z,6.10
2023-05-09T00:07:16.432Z,6.12
2023-05-09T00:09:43.193Z,6.15
2023-05-09T00:12:12.842Z,6.16
2023-05-09T00:14:40.889Z,6.17
2023-05-09T00:17:07.911Z,6.19
2023-05-09T00:19:34.857Z,6.20
2023-05-09T00:22:01.805Z,6.22
2023-05-09T00:24:28.691Z,6.26
2023-05-09T00:26:56.004Z,6.30
2023-05-09T00:29:22.888Z,6.35
2023-05-09T00:31:49.843Z,6.39
2023-05-09T00:34:16.774Z,6.44
2023-05-09T00:36:43.644Z,6.49
2023-05-09T00:39:10.464Z,6.54
2023-05-09T00:41:37.347Z,6.58
2023-05-09T00:44:04.253Z,6.63
2023-05-09T00:46:31.101Z,6.67
2023-05-09T00:48:57.957Z,6.71
2023-05-09T00:51:25.138Z,6.75
2023-05-09T00:53:51.894Z,6.78
2023-05-09T00:56:18.751Z,6.80
2023-05-09T00:58:45.617Z,6.82
2023-05-09T01:01:12.659Z,6.85
2023-05-09T01:03:39.998Z,6.88
2023-05-09T01:06:08.232Z,6.91
2023-05-09T01:08:45.496Z,6.93
2023-05-09T01:11:17.665Z,6.95
2023-05-09T01:13:51.015Z,6.95
2023-05-09T01:16:20.006Z,6.97
2023-05-09T01:18:55.364Z,6.99
2023-05-09T01:21:28.193Z,7.01
2023-05-09T01:24:13.802Z,7.03
2023-05-09T01:27:23.516Z,7.04
2023-05-09T01:29:57.328Z,7.05
2023-05-09T01:32:28.534Z,7.06
2023-05-09T01:34:57.364Z,7.07
2023-05-09T01:37:32.110Z,7.07
2023-05-09T01:40:01.472Z,7.06
2023-05-09T01:42:35.036Z,7.04
2023-05-09T01:45:01.880Z,7.04
2023-05-09T01:47:28.697Z,7.05
2023-05-09T01:49:55.641Z,7.04
2023-05-09T01:52:22.717Z,7.03
2023-05-09T01:54:49.608Z,7.03
2023-05-09T01:57:16.480Z,7.01
2023-05-09T01:59:44.694Z,7.01
2023-05-09T02:02:11.553Z,7.02
2023-05-09T02:04:38.486Z,7.02
2023-05-09T02:07:05.711Z,7.03
2023-05-09T02:09:32.696Z,7.05
2023-05-09T02:11:59.502Z,7.06
2023-05-09T02:14:26.879Z,7.07
2023-05-09T02:16:54.264Z,7.07
2023-05-09T02:19:21.118Z,7.07
2023-05-09T02:21:48.161Z,7.07
2023-05-09T02:24:14.946Z,7.07
2023-05-09T02:26:41.786Z,7.08
2023-05-09T02:29:08.679Z,7.10
2023-05-09T02:31:35.674Z,7.10
2023-05-09T02:34:04.142Z,7.10
2023-05-09T02:36:31.702Z,7.09
2023-05-09T02:38:58.634Z,7.08
2023-05-09T02:41:27.638Z,7.09
2023-05-09T02:43:54.522Z,7.10
2023-05-09T02:46:21.482Z,7.11
2023-05-09T02:48:48.338Z,7.11
2023-05-09T02:51:15.260Z,7.12
2023-05-09T02:53:42.054Z,7.11
2023-05-09T02:56:09.924Z,7.11
2023-05-09T02:58:37.387Z,7.12
2023-05-09T03:01:04.521Z,7.12
2023-05-09T03:03:34.202Z,7.14
2023-05-09T03:06:02.094Z,7.14
2023-05-09T03:08:28.948Z,7.15
2023-05-09T03:10:55.919Z,7.17
2023-05-09T03:13:23.230Z,7.18
2023-05-09T03:15:50.145Z,7.18
2023-05-09T03:18:17.785Z,7.20
2023-05-09T03:20:44.737Z,7.22
2023-05-09T03:23:11.580Z,7.24
2023-05-09T03:25:38.396Z,7.27
2023-05-09T03:28:06.159Z,7.28
2023-05-09T03:30:33.093Z,7.31
2023-05-09T03:33:00.935Z,7.34
2023-05-09T03:35:27.985Z,7.36
2023-05-09T03:37:55.340Z,7.39
2023-05-09T03:40:22.177Z,7.43
2023-05-09T03:42:54.122Z,7.46
2023-05-09T03:45:21.570Z,7.50
2023-05-09T03:47:48.459Z,7.53
2023-05-09T03:50:15.684Z,7.55
2023-05-09T03:52:43.404Z,7.58
2023-05-09T03:55:12.402Z,7.62
2023-05-09T03:57:39.827Z,7.67
2023-05-09T04:00:09.871Z,7.72
2023-05-09T04:02:46.654Z,7.75
2023-05-09T04:05:20.193Z,7.83
2023-05-09T04:07:47.611Z,7.90
2023-05-09T04:10:16.884Z,7.95
2023-05-09T04:12:43.950Z,7.99
2023-05-09T04:15:16.826Z,8.03
2023-05-09T04:17:44.252Z,8.07
2023-05-09T04:20:12.601Z,8.12
2023-05-09T04:22:39.539Z,8.18
2023-05-09T04:25:07.673Z,8.21
2023-05-09T04:27:34.763Z,8.24
2023-05-09T04:30:04.310Z,8.27
2023-05-09T04:32:31.408Z,8.30
2023-05-09T04:34:58.624Z,8.36
2023-05-09T04:37:28.491Z,8.42
2023-05-09T04:39:55.583Z,8.45
2023-05-09T04:42:27.140Z,8.49
2023-05-09T04:44:54.017Z,8.53
2023-05-09T04:47:21.489Z,8.57
2023-05-09T04:49:48.360Z,8.60
2023-05-09T04:52:15.380Z,8.66
2023-05-09T04:54:43.575Z,8.72
2023-05-09T04:57:18.034Z,8.79
2023-05-09T04:59:48.480Z,8.88
2023-05-09T05:02:15.402Z,8.97
2023-05-09T05:04:42.822Z,9.07
2023-05-09T05:07:09.791Z,9.17
2023-05-09T05:09:36.678Z,9.25
2023-05-09T05:12:09.365Z,9.33
2023-05-09T05:14:37.370Z,9.39
2023-05-09T05:17:05.063Z,9.44
2023-05-09T05:19:32.172Z,9.48
2023-05-09T05:21:59.138Z,9.54
2023-05-09T05:24:26.475Z,9.64
2023-05-09T05:26:53.534Z,9.77
2023-05-09T05:29:20.798Z,9.89
2023-05-09T05:31:47.704Z,10.03
2023-05-09T05:34:16.342Z,10.14
2023-05-09T05:36:43.785Z,10.21
2023-05-09T05:39:10.746Z,10.28
2023-05-09T05:41:37.551Z,10.36
2023-05-09T05:44:05.636Z,10.42
2023-05-09T05:46:32.703Z,10.52
2023-05-09T05:48:59.688Z,10.64
2023-05-09T05:51:27.457Z,10.76
2023-05-09T05:53:54.483Z,10.83
2023-05-09T05:56:22.836Z,10.90
2023-05-09T05:58:49.856Z,10.96
2023-05-09T06:01:23.490Z,11.01
2023-05-09T06:03:54.942Z,11.05
2023-05-09T06:06:22.923Z,11.13
2023-05-09T06:08:52.736Z,11.19
2023-05-09T06:11:21.358Z,11.26
2023-05-09T06:13:48.104Z,11.30
2023-05-09T06:16:19.496Z,11.35
2023-05-09T06:18:49.734Z,11.42
2023-05-09T06:21:16.614Z,11.55
2023-05-09T06:23:57.781Z,11.68
2023-05-09T06:26:30.257Z,11.82
2023-05-09T06:28:57.076Z,11.94
2023-05-09T06:31:25.599Z,12.06
2023-05-09T06:33:53.255Z,12.17
2023-05-09T06:36:20.009Z,12.26
2023-05-09T06:38:46.850Z,12.37
2023-05-09T06:41:13.611Z,12.47
2023-05-09T06:43:40.464Z,12.55
2023-05-09T06:46:07.208Z,12.63
2023-05-09T06:48:33.970Z,12.70
2023-05-09T06:51:00.920Z,12.79
2023-05-09T06:53:27.671Z,12.87
2023-05-09T06:55:54.583Z,12.94
2023-05-09T06:58:21.361Z,13.02
2023-05-09T07:00:48.297Z,13.16
2023-05-09T07:03:16.005Z,13.30
2023-05-09T07:05:42.823Z,13.38
2023-05-09T07:08:09.617Z,13.48
2023-05-09T07:10:36.419Z,13.61
2023-05-09T07:13:03.223Z,13.75
2023-05-09T07:15:40.408Z,13.85
2023-05-09T07:18:08.749Z,13.87
2023-05-09T07:20:35.550Z,13.89
2023-05-09T07:23:06.089Z,13.89
2023-05-09T07:25:35.802Z,13.89
2023-05-09T07:28:02.533Z,13.83
2023-05-09T07:30:29.321Z,13.83
2023-05-09T07:32:56.169Z,13.83
2023-05-09T07:35:23.056Z,13.87
2023-05-09T07:37:49.753Z,13.95
2023-05-09T07:40:17.085Z,13.99
2023-05-09T07:42:49.731Z,13.99
2023-05-09T07:45:17.013Z,13.92
2023-05-09T07:47:44.315Z,13.84
2023-05-09T07:50:11.303Z,13.81
2023-05-09T07:52:38.194Z,13.84
2023-05-09T07:55:05.452Z,13.91
2023-05-09T07:57:32.480Z,14.04
2023-05-09T07:59:59.463Z,14.16
2023-05-09T08:02:26.280Z,14.26
2023-05-09T08:04:53.233Z,14.29
2023-05-09T08:07:19.995Z,14.30
2023-05-09T08:09:46.709Z,14.30
2023-05-09T08:12:13.403Z,14.28
2023-05-09T08:14:40.910Z,14.26
2023-05-09T08:17:07.670Z,14.25
2023-05-09T08:19:34.428Z,14.25
2023-05-09T08:22:01.507Z,14.30
2023-05-09T08:24:28.314Z,14.33
2023-05-09T08:26:55.090Z,14.31
2023-05-09T08:29:21.902Z,14.32
2023-05-09T08:31:48.761Z,14.37
2023-05-09T08:34:16.018Z,14.46
2023-05-09T08:36:45.616Z,14.54
2023-05-09T08:39:12.391Z,14.60
2023-05-09T08:41:39.116Z,14.65
2023-05-09T08:44:05.939Z,14.73
2023-05-09T08:46:36.909Z,14.89
2023-05-09T08:49:06.679Z,15.16
2023-05-09T08:51:33.406Z,15.45
2023-05-09T08:54:00.178Z,15.74
2023-05-09T08:56:27.051Z,16.06
2023-05-09T08:58:54.283Z,16.35
2023-05-09T09:01:21.094Z,16.66
2023-05-09T09:03:49.614Z,16.92
2023-05-09T09:06:16.944Z,17.13
2023-05-09T09:08:44.304Z,17.30
2023-05-09T09:11:12.310Z,17.29
2023-05-09T09:13:41.125Z,17.21
2023-05-09T09:16:09.932Z,17.17
2023-05-09T09:18:37.773Z,17.39
2023-05-09T09:21:07.511Z,17.87
2023-05-09T09:23:34.320Z,18.52
2023-05-09T09:26:02.530Z,19.21
2023-05-09T09:28:29.731Z,19.65
2023-05-09T09:30:56.633Z,19.67
2023-05-09T09:33:26.621Z,19.56
2023-05-09T09:37:59.872Z,19.32
2023-05-09T09:40:27.130Z,19.23
2023-05-09T09:42:54.004Z,19.24
2023-05-09T09:45:20.957Z,19.50
2023-05-09T09:47:48.710Z,20.02
2023-05-09T09:50:20.259Z,20.53
2023-05-09T09:52:50.635Z,20.81
2023-05-09T09:55:18.925Z,20.89
2023-05-09T09:57:45.951Z,20.98
2023-05-09T10:00:14.486Z,20.92
2023-05-09T10:02:51.790Z,20.76
2023-05-09T10:05:21.881Z,20.59
2023-05-09T10:07:59.437Z,20.54
2023-05-09T10:10:27.371Z,20.60
2023-05-09T10:12:59.024Z,20.68
2023-05-09T10:17:58.105Z,20.60
2023-05-09T10:20:25.244Z,20.80
2023-05-09T10:22:54.947Z,21.10
2023-05-09T10:25:22.397Z,21.34
2023-05-09T10:27:49.551Z,21.31
2023-05-09T10:30:22.736Z,21.07
2023-05-09T10:33:03.055Z,20.91
2023-05-09T10:35:37.307Z,20.70
2023-05-09T10:38:04.112Z,20.50
2023-05-09T10:40:32.114Z,20.24
2023-05-09T10:42:58.957Z,20.02
2023-05-09T10:45:25.776Z,19.84
2023-05-09T10:47:56.675Z,19.75
2023-05-09T10:50:23.653Z,19.71
2023-05-09T10:53:11.611Z,19.71
2023-05-09T10:55:50.790Z,19.72
2023-05-09T10:58:20.693Z,20.02
2023-05-09T11:00:51.115Z,20.37
2023-05-09T11:03:19.500Z,20.66
2023-05-09T11:05:47.599Z,20.85
2023-05-09T11:08:28.230Z,20.84
2023-05-09T11:10:56.403Z,20.75
2023-05-09T11:13:24.827Z,20.69
2023-05-09T11:16:18.164Z,20.52
2023-05-09T11:18:51.315Z,20.29
2023-05-09T11:21:20.399Z,20.13
2023-05-09T11:23:48.096Z,19.89
2023-05-09T11:26:14.967Z,19.73
2023-05-09T11:28:41.712Z,19.73
2023-05-09T11:31:10.318Z,19.73
2023-05-09T11:33:37.520Z,19.92
2023-05-09T11:36:20.744Z,20.12
2023-05-09T11:38:47.699Z,20.33
2023-05-09T11:41:14.946Z,20.34
2023-05-09T11:43:42.771Z,20.15
2023-05-09T11:46:09.624Z,19.94
2023-05-09T11:48:47.327Z,19.78
2023-05-09T11:51:23.842Z,19.69
2023-05-09T11:53:51.532Z,19.53
2023-05-09T11:56:18.315Z,19.33
2023-05-09T11:58:46.829Z,19.19
2023-05-09T12:01:13.654Z,19.15
2023-05-09T12:03:46.703Z,19.15
2023-05-09T12:06:17.742Z,19.22
2023-05-09T12:08:47.746Z,19.29
2023-05-09T12:11:15.162Z,19.27
2023-05-09T12:14:00.423Z,19.24
2023-05-09T12:16:27.285Z,19.22
2023-05-09T12:18:54.847Z,19.20
2023-05-09T12:21:22.106Z,19.12
2023-05-09T12:23:51.183Z,18.97
2023-05-09T12:26:19.284Z,18.86
2023-05-09T12:28:46.123Z,18.83
2023-05-09T12:31:13.239Z,18.83
2023-05-09T12:33:40.236Z,18.78
2023-05-09T12:36:11.796Z,18.73
2023-05-09T12:38:38.842Z,18.63
2023-05-09T12:41:10.708Z,18.58
2023-05-09T12:43:47.874Z,18.58
2023-05-09T12:46:18.656Z,18.52
2023-05-09T12:48:45.566Z,18.44
2023-05-09T12:51:12.420Z,18.38
2023-05-09T12:53:40.360Z,18.39
2023-05-09T12:56:16.738Z,18.37
2023-05-09T12:58:54.290Z,18.31
2023-05-09T13:01:28.629Z,18.24
2023-05-09T13:04:01.942Z,18.19
2023-05-09T13:06:28.763Z,18.18
2023-05-09T13:09:00.350Z,18.21
2023-05-09T13:11:27.280Z,18.19
2023-05-09T13:13:54.942Z,18.16
2023-05-09T13:16:22.146Z,18.16
2023-05-09T13:18:48.977Z,18.12
2023-05-09T13:21:15.973Z,18.06
2023-05-09T13:23:44.260Z,17.99
2023-05-09T13:26:11.043Z,17.93
2023-05-09T13:28:37.892Z,17.85
2023-05-09T13:31:04.937Z,17.82
2023-05-09T13:33:31.885Z,17.81
2023-05-09T13:35:58.792Z,17.76
2023-05-09T13:38:25.926Z,17.70
2023-05-09T13:40:52.638Z,17.65
2023-05-09T13:43:19.513Z,17.59
2023-05-09T13:45:46.339Z,17.57
2023-05-09T13:48:13.174Z,17.55
2023-05-09T13:50:40.228Z,17.51
2023-05-09T13:53:06.987Z,17.43
2023-05-09T13:55:34.621Z,17.35
2023-05-09T13:58:01.712Z,17.31
2023-05-09T14:00:28.640Z,17.27
2023-05-09T14:02:55.429Z,17.23
2023-05-09T14:05:22.832Z,17.21
2023-05-09T14:07:49.679Z,17.25
2023-05-09T14:10:17.649Z,17.28
2023-05-09T14:12:46.824Z,17.31
2023-05-09T14:15:13.760Z,17.32
2023-05-09T14:17:40.888Z,17.30
2023-05-09T14:20:09.069Z,17.19
2023-05-09T14:22:36.787Z,17.08
2023-05-09T14:25:03.966Z,17.06
2023-05-09T14:27:31.301Z,17.01
2023-05-09T14:29:58.153Z,16.93
2023-05-09T14:32:25.465Z,16.83
2023-05-09T14:34:52.330Z,16.76
2023-05-09T14:37:19.271Z,16.69
2023-05-09T14:39:47.005Z,16.61
2023-05-09T14:42:14.470Z,16.52
2023-05-09T14:44:41.817Z,16.36
2023-05-09T14:47:09.562Z,16.22
2023-05-09T14:49:37.426Z,16.11
2023-05-09T14:52:04.450Z,16.03
2023-05-09T14:54:31.694Z,15.92
2023-05-09T14:56:59.661Z,15.77
2023-05-09T14:59:26.534Z,15.59
2023-05-09T15:01:53.723Z,15.38
2023-05-09T15:04:20.667Z,15.24
2023-05-09T15:06:47.504Z,15.15
2023-05-09T15:09:14.764Z,15.05
2023-05-09T15:11:48.392Z,14.99
2023-05-09T15:14:16.828Z,14.91
2023-05-09T15:16:44.603Z,14.84
2023-05-09T15:19:12.396Z,14.79
2023-05-09T15:21:39.324Z,14.75
2023-05-09T15:24:06.974Z,14.73
2023-05-09T15:26:33.785Z,14.68
2023-05-09T15:29:00.537Z,14.60
2023-05-09T15:31:31.872Z,14.51
2023-05-09T15:33:59.935Z,14.40
2023-05-09T15:36:29.659Z,14.30
2023-05-09T15:38:57.427Z,14.20
2023-05-09T15:41:24.487Z,14.11
2023-05-09T15:43:52.314Z,13.99
2023-05-09T15:46:21.516Z,13.91
2023-05-09T15:48:48.554Z,13.82
2023-05-09T15:51:15.894Z,13.71
2023-05-09T15:53:42.868Z,13.62
2023-05-09T15:56:09.742Z,13.54
2023-05-09T15:58:36.890Z,13.47
2023-05-09T16:01:06.429Z,13.43
2023-05-09T16:03:36.373Z,13.40
2023-05-09T16:06:03.785Z,13.38
2023-05-09T16:08:30.953Z,13.37
2023-05-09T16:11:00.872Z,13.35
2023-05-09T16:13:27.824Z,13.31
2023-05-09T16:15:54.897Z,13.25
2023-05-09T16:18:21.753Z,13.22
2023-05-09T16:20:48.740Z,13.19
2023-05-09T16:23:15.602Z,13.14
2023-05-09T16:25:42.459Z,13.10
2023-05-09T16:28:09.552Z,13.06
2023-05-09T16:30:36.432Z,13.00
2023-05-09T16:33:03.324Z,12.94
2023-05-09T16:35:30.280Z,12.89
2023-05-09T16:37:57.362Z,12.83
2023-05-09T16:40:24.157Z,12.76
2023-05-09T16:42:50.896Z,12.69
2023-05-09T16:45:17.780Z,12.61
2023-05-09T16:47:44.632Z,12.54
2023-05-09T16:50:11.508Z,12.48
2023-05-09T16:52:38.357Z,12.42
2023-05-09T16:55:05.909Z,12.36
2023-05-09T16:57:33.395Z,12.28
2023-05-09T17:00:00.407Z,12.20
2023-05-09T17:02:27.508Z,12.13
2023-05-09T17:04:54.838Z,12.07
2023-05-09T17:07:21.729Z,11.98
2023-05-09T17:09:49.743Z,11.90
2023-05-09T17:12:18.512Z,11.82
2023-05-09T17:14:46.734Z,11.75
2023-05-09T17:17:14.691Z,11.68
2023-05-09T17:19:41.468Z,11.60
2023-05-09T17:22:08.767Z,11.56
2023-05-09T17:24:35.540Z,11.48
2023-05-09T17:27:02.384Z,11.41
2023-05-09T17:29:29.395Z,11.35
2023-05-09T17:32:02.428Z,11.29
2023-05-09T17:34:29.307Z,11.24
2023-05-09T17:36:56.393Z,11.19
2023-05-09T17:39:23.581Z,11.13
2023-05-09T17:41:50.386Z,11.08
2023-05-09T17:44:17.316Z,11.04
2023-05-09T17:46:44.251Z,11.00
2023-05-09T17:49:14.201Z,10.96
2023-05-09T17:51:41.331Z,10.92
2023-05-09T17:54:08.606Z,10.88
2023-05-09T17:56:35.960Z,10.82
2023-05-09T17:59:03.236Z,10.78
2023-05-09T18:01:30.107Z,10.72
2023-05-09T18:03:57.284Z,10.67
2023-05-09T18:06:24.398Z,10.63
2023-05-09T18:08:57.300Z,10.60
2023-05-09T18:11:27.314Z,10.55
2023-05-09T18:13:54.226Z,10.54
2023-05-09T18:16:21.684Z,10.51
2023-05-09T18:18:48.829Z,10.49
2023-05-09T18:21:15.807Z,10.47
2023-05-09T18:23:42.636Z,10.45
2023-05-09T18:26:11.142Z,10.42
2023-05-09T18:28:41.074Z,10.40
2023-05-09T18:31:09.597Z,10.38
2023-05-09T18:33:39.054Z,10.35
2023-05-09T18:36:11.030Z,10.32
2023-05-09T18:38:41.150Z,10.29
2023-05-09T18:41:08.911Z,10.28
2023-05-09T18:43:36.169Z,10.25
2023-05-09T18:46:03.725Z,10.22
2023-05-09T18:48:31.206Z,10.20
2023-05-09T18:50:58.132Z,10.18
2023-05-09T18:53:29.097Z,10.16
2023-05-09T18:55:57.360Z,10.13
2023-05-09T18:58:24.920Z,10.09
2023-05-09T19:00:53.295Z,10.05
2023-05-09T19:03:20.962Z,10.01
2023-05-09T19:05:47.797Z,9.97
2023-05-09T19:08:14.730Z,9.92
2023-05-09T19:10:41.589Z,9.86
2023-05-09T19:13:09.867Z,9.81
2023-05-09T19:15:37.452Z,9.76
2023-05-09T19:18:04.543Z,9.71
2023-05-09T19:20:31.641Z,9.64
2023-05-09T19:22:58.837Z,9.58
2023-05-09T19:25:26.015Z,9.53
2023-05-09T19:27:52.938Z,9.46
2023-05-09T19:30:20.939Z,9.39
2023-05-09T19:32:47.868Z,9.31
2023-05-09T19:35:14.747Z,9.23
2023-05-09T19:37:41.636Z,9.16
2023-05-09T19:40:08.668Z,9.09
2023-05-09T19:42:35.819Z,9.02
2023-05-09T19:45:03.435Z,8.96
2023-05-09T19:47:30.465Z,8.89
2023-05-09T19:49:57.268Z,8.83
2023-05-09T19:52:24.992Z,8.78
2023-05-09T19:54:51.830Z,8.73
2023-05-09T19:57:22.909Z,8.68
2023-05-09T19:59:49.764Z,8.64
2023-05-09T20:02:16.860Z,8.61
2023-05-09T20:04:50.752Z,8.57
2023-05-09T20:07:17.720Z,8.54
2023-05-09T20:09:44.887Z,8.52
2023-05-09T20:12:13.871Z,8.51
2023-05-09T20:14:40.782Z,8.49
2023-05-09T20:17:07.707Z,8.46
2023-05-09T20:19:34.792Z,8.44
2023-05-09T20:22:02.029Z,8.40
2023-05-09T20:24:28.966Z,8.35
2023-05-09T20:26:56.065Z,8.28
2023-05-09T20:29:23.867Z,8.22
2023-05-09T20:31:50.695Z,8.17
2023-05-09T20:34:19.725Z,8.12
2023-05-09T20:36:48.362Z,8.08
2023-05-09T20:39:17.771Z,8.06
2023-05-09T20:41:45.533Z,8.04
2023-05-09T20:44:13.335Z,8.03
2023-05-09T20:46:43.528Z,8.02
2023-05-09T20:49:11.023Z,7.98
2023-05-09T20:51:38.324Z,7.94
2023-05-09T20:54:05.318Z,7.92
2023-05-09T20:56:33.699Z,7.89
2023-05-09T20:59:01.174Z,7.88
2023-05-09T21:01:28.077Z,7.87
2023-05-09T21:03:54.964Z,7.86
2023-05-09T21:06:21.728Z,7.85
2023-05-09T21:08:48.515Z,7.84
2023-05-09T21:11:15.379Z,7.83
2023-05-09T21:13:42.218Z,7.82
2023-05-09T21:16:09.061Z,7.82
2023-05-09T21:18:35.865Z,7.81
2023-05-09T21:21:05.471Z,7.78
2023-05-09T21:23:32.255Z,7.79
2023-05-09T21:25:59.000Z,7.78
2023-05-09T21:28:26.788Z,7.74
2023-05-09T21:30:53.693Z,7.72
2023-05-09T21:33:20.848Z,7.71
2023-05-09T21:35:47.583Z,7.71
2023-05-09T21:38:14.327Z,7.70
2023-05-09T21:40:41.400Z,7.67
2023-05-09T21:43:08.173Z,7.64
2023-05-09T21:45:34.996Z,7.62
2023-05-09T21:48:01.894Z,7.59
2023-05-09T21:50:28.777Z,7.56
2023-05-09T21:55:15.862Z,7.48
2023-05-09T21:57:42.623Z,7.39
2023-05-09T22:00:14.479Z,7.34
2023-05-09T22:02:44.529Z,7.27
2023-05-09T22:05:11.688Z,7.19
2023-05-09T22:07:38.671Z,7.12
2023-05-09T22:10:06.465Z,7.05
2023-05-09T22:12:33.344Z,7.01
2023-05-09T22:15:00.081Z,6.96
2023-05-09T22:17:27.198Z,6.91
2023-05-09T22:19:54.043Z,6.89
2023-05-09T22:22:21.534Z,6.88
2023-05-09T22:24:49.841Z,6.86
2023-05-09T22:27:16.627Z,6.85
2023-05-09T22:29:43.330Z,6.82
2023-05-09T22:32:10.196Z,6.76
2023-05-09T22:34:37.338Z,6.73
2023-05-09T22:37:04.872Z,6.72
2023-05-09T22:39:31.771Z,6.72
2023-05-09T22:41:58.596Z,6.73
2023-05-09T22:44:25.407Z,6.72
2023-05-09T22:46:52.332Z,6.72
2023-05-09T22:49:19.486Z,6.71
2023-05-09T22:51:46.289Z,6.72
2023-05-09T22:54:13.120Z,6.75
2023-05-09T22:56:40.304Z,6.78
2023-05-09T22:59:07.067Z,6.81
2023-05-09T23:01:33.883Z,6.83
2023-05-09T23:04:00.796Z,6.87
2023-05-09T23:06:27.634Z,6.91
2023-05-09T23:08:54.425Z,6.96
2023-05-09T23:11:23.760Z,7.01
2023-05-09T23:13:50.563Z,7.06
2023-05-09T23:16:17.419Z,7.11
2023-05-09T23:18:44.212Z,7.16
2023-05-09T23:21:11.069Z,7.19
2023-05-09T23:23:37.875Z,7.21
2023-05-09T23:26:04.721Z,7.26
2023-05-09T23:28:31.629Z,7.31
2023-05-09T23:30:58.562Z,7.34
2023-05-09T23:33:25.512Z,7.37
2023-05-09T23:35:52.307Z,7.41
2023-05-09T23:38:19.727Z,7.45
2023-05-09T23:40:46.678Z,7.49
2023-05-09T23:43:13.603Z,7.52
2023-05-09T23:45:40.516Z,7.54
2023-05-09T23:48:07.780Z,7.58
2023-05-09T23:50:34.714Z,7.62
2023-05-09T23:53:01.772Z,7.65
2023-05-09T23:55:29.272Z,7.68
2023-05-09T23:57:56.120Z,7.71
